createdAt,value
2019-05-10T00:00:47.330Z,27.50
2019-05-10T00:03:33.052Z,27.37
2019-05-10T00:06:18.797Z,28.83
2019-05-10T00:08:45.795Z,28.80
2019-05-10T00:11:34.133Z,28.07
2019-05-10T00:14:21.840Z,28.57
2019-05-10T00:16:51.539Z,27.70
2019-05-10T00:19:22.799Z,32.13
2019-05-10T00:21:53.181Z,30.35
2019-05-10T00:24:22.955Z,28.85
2019-05-10T00:26:51.642Z,32.88
2019-05-10T00:29:21.822Z,29.70
2019-05-10T00:31:49.786Z,30.12
2019-05-10T00:34:18.797Z,32.15
2019-05-10T00:36:48.561Z,30.85
2019-05-10T00:39:19.437Z,31.45
2019-05-10T00:41:46.212Z,33.30
2019-05-10T00:44:14.119Z,30.50
2019-05-10T00:46:42.029Z,29.63
2019-05-10T00:49:10.132Z,31.40
2019-05-10T00:51:38.033Z,32.50
2019-05-10T00:54:05.895Z,31.68
2019-05-10T00:56:35.626Z,28.23
2019-05-10T00:59:03.781Z,30.68
2019-05-10T01:01:31.646Z,29.75
2019-05-10T01:04:01.604Z,30.00
2019-05-10T01:06:30.114Z,30.72
2019-05-10T01:08:59.030Z,29.10
2019-05-10T01:11:26.919Z,28.27
2019-05-10T01:13:54.770Z,30.72
2019-05-10T01:16:27.653Z,30.80
2019-05-10T01:18:55.547Z,30.50
2019-05-10T01:21:23.406Z,31.37
2019-05-10T01:23:51.301Z,32.85
2019-05-10T01:26:19.462Z,30.40
2019-05-10T01:28:47.322Z,31.37
2019-05-10T01:31:15.170Z,29.05
2019-05-10T01:33:43.078Z,31.23
2019-05-10T01:36:10.894Z,31.05
2019-05-10T01:38:39.785Z,31.07
2019-05-10T01:41:11.199Z,29.90
2019-05-10T01:43:39.631Z,31.10
2019-05-10T01:46:09.562Z,30.62
2019-05-10T01:48:37.450Z,41.53
2019-05-10T01:51:05.259Z,33.95
2019-05-10T01:53:33.150Z,31.90
2019-05-10T01:56:01.017Z,31.40
2019-05-10T01:58:28.946Z,28.92
2019-05-10T02:00:56.789Z,29.92
2019-05-10T02:03:25.030Z,27.85
2019-05-10T02:05:52.925Z,34.85
2019-05-10T02:08:22.258Z,27.45
2019-05-10T02:10:50.080Z,29.75
2019-05-10T02:13:18.505Z,28.75
2019-05-10T02:15:46.375Z,28.30
2019-05-10T02:18:14.297Z,30.02
2019-05-10T02:20:42.150Z,27.93
2019-05-10T02:23:10.307Z,31.07
2019-05-10T02:25:38.734Z,28.20
2019-05-10T02:28:06.555Z,26.95
2019-05-10T02:30:34.434Z,30.23
2019-05-10T02:33:02.411Z,28.42
2019-05-10T02:35:30.288Z,30.55
2019-05-10T02:37:58.161Z,28.00
2019-05-10T02:40:26.071Z,29.32
2019-05-10T02:42:53.938Z,29.80
2019-05-10T02:45:22.209Z,30.95
2019-05-10T02:47:50.023Z,27.50
2019-05-10T02:50:20.075Z,28.55
2019-05-10T02:52:47.944Z,27.70
2019-05-10T02:55:15.770Z,26.70
2019-05-10T02:57:43.798Z,30.12
2019-05-10T03:00:11.783Z,29.35
2019-05-10T03:02:39.697Z,27.55
2019-05-10T03:05:08.619Z,28.27
2019-05-10T03:07:38.976Z,26.97
2019-05-10T03:10:08.542Z,27.93
2019-05-10T03:12:40.478Z,26.85
2019-05-10T03:15:08.634Z,27.50
2019-05-10T03:17:38.476Z,28.32
2019-05-10T03:20:06.430Z,27.48
2019-05-10T03:22:37.707Z,25.40
2019-05-10T03:25:05.582Z,25.62
2019-05-10T03:27:35.430Z,24.92
2019-05-10T03:30:10.673Z,26.60
2019-05-10T03:32:38.655Z,26.48
2019-05-10T03:35:06.579Z,25.08
2019-05-10T03:37:34.558Z,27.27
2019-05-10T03:40:02.406Z,23.92
2019-05-10T03:42:30.268Z,25.25
2019-05-10T03:44:58.189Z,24.37
2019-05-10T03:47:26.080Z,26.33
2019-05-10T03:49:53.959Z,24.80
2019-05-10T03:52:21.995Z,25.50
2019-05-10T03:54:50.795Z,26.37
2019-05-10T03:57:18.685Z,26.70
2019-05-10T03:59:46.783Z,28.17
2019-05-10T04:02:14.658Z,29.25
2019-05-10T04:04:42.595Z,27.48
2019-05-10T04:07:12.062Z,31.10
2019-05-10T04:09:39.935Z,33.65
2019-05-10T04:12:07.812Z,28.42
2019-05-10T04:14:36.093Z,31.23
2019-05-10T04:17:03.962Z,28.87
2019-05-10T04:19:34.951Z,31.30
2019-05-10T04:22:03.188Z,34.98
2019-05-10T04:24:35.525Z,34.83
2019-05-10T04:27:00.698Z,32.93
2019-05-10T04:29:29.643Z,28.00
2019-05-10T04:31:57.473Z,29.25
2019-05-10T04:34:25.418Z,34.55
2019-05-10T04:36:53.294Z,30.95
2019-05-10T04:39:21.242Z,30.85
2019-05-10T04:41:49.098Z,32.67
2019-05-10T04:44:17.110Z,32.00
2019-05-10T04:46:45.059Z,28.75
2019-05-10T04:49:12.926Z,30.50
2019-05-10T04:51:40.756Z,32.25
2019-05-10T04:54:08.583Z,27.35
2019-05-10T04:56:36.466Z,29.67
2019-05-10T04:59:04.333Z,27.55
2019-05-10T05:01:32.209Z,29.98
2019-05-10T05:04:00.057Z,27.80
2019-05-10T05:06:27.908Z,26.57
2019-05-10T05:08:55.799Z,28.42
2019-05-10T05:11:23.611Z,27.20
2019-05-10T05:13:51.514Z,30.57
2019-05-10T05:16:19.355Z,27.65
2019-05-10T05:18:47.189Z,28.65
2019-05-10T05:21:15.022Z,25.70
2019-05-10T05:23:42.858Z,31.07
2019-05-10T05:26:10.708Z,27.80
2019-05-10T05:28:38.526Z,26.68
2019-05-10T05:31:06.386Z,27.42
2019-05-10T05:33:34.225Z,26.77
2019-05-10T05:36:02.527Z,28.17
2019-05-10T05:38:30.493Z,27.70
2019-05-10T05:40:58.360Z,28.35
2019-05-10T05:43:26.182Z,29.32
2019-05-10T05:45:54.049Z,31.68
2019-05-10T05:48:23.111Z,27.27
2019-05-10T05:50:51.427Z,29.00
2019-05-10T05:53:22.420Z,30.02
2019-05-10T05:55:48.810Z,30.77
2019-05-10T05:58:26.095Z,32.55
2019-05-10T06:00:46.783Z,30.05
2019-05-10T06:03:19.456Z,30.40
2019-05-10T06:05:44.474Z,32.98
2019-05-10T06:08:30.068Z,30.17
2019-05-10T06:10:43.882Z,31.50
2019-05-10T06:13:11.406Z,30.02
2019-05-10T06:15:39.239Z,31.82
2019-05-10T06:18:09.544Z,28.52
2019-05-10T06:20:38.111Z,33.53
2019-05-10T06:23:07.233Z,33.85
2019-05-10T06:25:42.187Z,33.80
2019-05-10T06:28:17.481Z,36.73
2019-05-10T06:30:34.950Z,34.25
2019-05-10T06:33:12.113Z,38.65
2019-05-10T06:35:32.334Z,34.35
2019-05-10T06:38:00.196Z,33.85
2019-05-10T06:40:35.663Z,34.65
2019-05-10T06:42:57.618Z,33.67
2019-05-10T06:45:25.492Z,37.28
2019-05-10T06:47:53.573Z,36.80
2019-05-10T06:50:28.898Z,34.45
2019-05-10T06:52:52.134Z,33.63
2019-05-10T06:55:20.307Z,35.10
2019-05-10T06:57:50.426Z,29.60
2019-05-10T07:00:17.695Z,35.08
2019-05-10T07:02:45.549Z,31.12
2019-05-10T07:05:13.501Z,31.70
2019-05-10T07:07:44.774Z,31.33
2019-05-10T07:10:18.643Z,31.40
2019-05-10T07:12:40.983Z,33.98
2019-05-10T07:15:09.471Z,31.20
2019-05-10T07:17:45.455Z,30.92
2019-05-10T07:20:07.046Z,29.50
2019-05-10T07:22:34.869Z,27.07
2019-05-10T07:25:04.560Z,30.08
2019-05-10T07:27:36.598Z,30.65
2019-05-10T07:30:01.811Z,29.65
2019-05-10T07:32:29.656Z,27.85
2019-05-10T07:35:00.837Z,26.30
2019-05-10T07:37:27.063Z,25.20
2019-05-10T07:39:55.197Z,25.70
2019-05-10T07:42:23.008Z,23.87
2019-05-10T07:44:50.910Z,22.85
2019-05-10T07:47:23.803Z,23.20
2019-05-10T07:49:48.462Z,26.05
2019-05-10T07:52:16.258Z,22.37
2019-05-10T07:54:47.719Z,22.65
2019-05-10T07:57:18.606Z,23.15
2019-05-10T07:59:50.673Z,27.60
2019-05-10T08:02:14.890Z,23.42
2019-05-10T08:04:42.996Z,28.60
2019-05-10T08:07:10.836Z,31.42
2019-05-10T08:09:44.717Z,25.35
2019-05-10T08:12:12.526Z,27.30
2019-05-10T08:14:39.359Z,31.00
2019-05-10T08:17:09.035Z,35.73
2019-05-10T08:19:37.980Z,30.20
2019-05-10T08:22:09.225Z,33.15
2019-05-10T08:24:36.272Z,28.23
2019-05-10T08:27:11.300Z,25.55
2019-05-10T08:29:33.683Z,23.77
2019-05-10T08:32:02.988Z,19.15
2019-05-10T08:34:35.460Z,21.73
2019-05-10T08:37:02.560Z,18.82
2019-05-10T08:39:34.875Z,19.52
2019-05-10T08:42:04.814Z,18.50
2019-05-10T08:44:29.188Z,19.98
2019-05-10T08:46:57.123Z,22.30
2019-05-10T08:49:31.043Z,22.40
2019-05-10T08:51:54.578Z,21.35
2019-05-10T08:54:25.901Z,20.55
2019-05-10T08:56:54.989Z,24.57
2019-05-10T08:59:26.160Z,20.92
2019-05-10T09:01:53.677Z,23.47
2019-05-10T09:04:22.237Z,20.43
2019-05-10T09:06:55.471Z,22.30
2019-05-10T09:09:22.610Z,17.60
2019-05-10T09:11:52.032Z,17.35
2019-05-10T09:14:20.218Z,16.40
2019-05-10T09:16:57.579Z,18.67
2019-05-10T09:19:18.994Z,17.62
2019-05-10T09:21:49.779Z,16.82
2019-05-10T09:24:17.605Z,16.85
2019-05-10T09:26:46.919Z,19.62
2019-05-10T09:29:14.998Z,17.67
2019-05-10T09:31:45.929Z,20.02
2019-05-10T09:34:13.490Z,20.48
2019-05-10T09:36:44.887Z,22.62
2019-05-10T09:39:17.566Z,18.77
2019-05-10T09:41:42.144Z,19.52
2019-05-10T09:44:09.988Z,18.62
2019-05-10T09:46:37.845Z,18.60
2019-05-10T09:49:14.613Z,17.35
2019-05-10T09:51:35.230Z,18.35
2019-05-10T09:54:03.059Z,20.45
2019-05-10T09:56:32.885Z,17.82
2019-05-10T09:59:00.535Z,17.60
2019-05-10T10:01:28.360Z,17.80
2019-05-10T10:03:58.340Z,18.85
2019-05-10T10:06:29.548Z,21.05
2019-05-10T10:08:55.376Z,27.93
2019-05-10T10:11:23.206Z,22.42
2019-05-10T10:13:59.002Z,17.70
2019-05-10T10:16:20.572Z,19.37
2019-05-10T10:18:48.403Z,17.90
2019-05-10T10:21:19.037Z,19.90
2019-05-10T10:23:45.850Z,16.55
2019-05-10T10:26:18.649Z,16.25
2019-05-10T10:28:43.230Z,18.95
2019-05-10T10:31:25.080Z,16.77
2019-05-10T10:33:42.892Z,17.42
2019-05-10T10:36:10.714Z,17.92
2019-05-10T10:38:45.346Z,17.77
2019-05-10T10:41:08.390Z,19.55
2019-05-10T10:43:37.082Z,19.80
2019-05-10T10:46:11.943Z,17.05
2019-05-10T10:48:36.841Z,16.93
2019-05-10T10:51:04.774Z,19.85
2019-05-10T10:53:32.622Z,18.20
2019-05-10T10:56:03.885Z,17.62
2019-05-10T10:58:30.047Z,19.30
2019-05-10T11:00:57.879Z,17.80
2019-05-10T11:03:30.512Z,18.30
2019-05-10T11:05:55.280Z,17.95
2019-05-10T11:08:23.100Z,18.52
2019-05-10T11:10:50.933Z,19.50
2019-05-10T11:13:29.025Z,19.52
2019-05-10T11:15:48.341Z,20.08
2019-05-10T11:18:16.150Z,20.17
2019-05-10T11:20:49.319Z,22.73
2019-05-10T11:23:16.190Z,18.75
2019-05-10T11:25:54.766Z,17.98
2019-05-10T11:28:12.756Z,17.00
2019-05-10T11:30:40.656Z,18.50
2019-05-10T11:33:25.445Z,16.82
2019-05-10T11:35:38.243Z,19.65
2019-05-10T11:38:12.944Z,17.37
2019-05-10T11:40:42.673Z,16.97
2019-05-10T11:43:10.545Z,20.55
2019-05-10T11:45:41.987Z,17.70
2019-05-10T11:48:10.733Z,18.17
2019-05-10T11:50:40.909Z,17.73
2019-05-10T11:53:13.595Z,15.43
2019-05-10T11:55:40.096Z,17.00
2019-05-10T11:58:08.878Z,16.20
2019-05-10T12:00:45.496Z,28.83
2019-05-10T12:03:18.351Z,17.35
2019-05-10T12:05:42.970Z,18.57
2019-05-10T12:08:12.993Z,16.30
2019-05-10T12:10:43.032Z,17.42
2019-05-10T12:13:18.573Z,16.35
2019-05-10T12:15:42.955Z,16.30
2019-05-10T12:18:13.902Z,18.12
2019-05-10T12:20:53.582Z,16.70
2019-05-10T12:23:13.469Z,18.65
2019-05-10T12:25:57.352Z,16.40
2019-05-10T12:28:07.449Z,17.70
2019-05-10T12:30:37.202Z,18.85
2019-05-10T12:33:09.249Z,19.37
2019-05-10T12:35:39.780Z,17.90
2019-05-10T12:38:04.196Z,18.82
2019-05-10T12:40:32.051Z,17.40
2019-05-10T12:43:00.655Z,18.77
2019-05-10T12:45:30.840Z,17.02
2019-05-10T12:47:58.394Z,18.30
2019-05-10T12:50:26.267Z,18.12
2019-05-10T12:53:03.301Z,18.92
2019-05-10T12:55:23.769Z,18.20
2019-05-10T12:57:51.619Z,17.75
2019-05-10T13:00:19.507Z,18.32
2019-05-10T13:02:51.443Z,18.32
2019-05-10T13:05:17.060Z,19.73
2019-05-10T13:07:45.024Z,19.25
2019-05-10T13:10:13.025Z,19.77
2019-05-10T13:12:44.365Z,20.70
2019-05-10T13:15:10.570Z,18.40
2019-05-10T13:17:44.186Z,18.17
2019-05-10T13:20:08.220Z,20.95
2019-05-10T13:22:37.792Z,18.23
2019-05-10T13:25:05.761Z,17.98
2019-05-10T13:27:33.630Z,20.20
2019-05-10T13:30:01.539Z,19.60
2019-05-10T13:32:29.421Z,19.02
2019-05-10T13:34:57.321Z,19.62
2019-05-10T13:37:25.395Z,20.60
2019-05-10T13:39:58.473Z,19.02
2019-05-10T13:42:22.884Z,19.40
2019-05-10T13:44:50.750Z,17.45
2019-05-10T13:47:18.661Z,18.20
2019-05-10T13:49:48.953Z,20.72
2019-05-10T13:52:16.134Z,18.20
2019-05-10T13:54:43.986Z,21.30
2019-05-10T13:57:11.897Z,17.20
2019-05-10T13:59:39.758Z,17.23
2019-05-10T14:02:07.617Z,19.27
2019-05-10T14:04:38.697Z,18.98
2019-05-10T14:07:05.125Z,17.50
2019-05-10T14:09:32.943Z,17.80
2019-05-10T14:12:00.820Z,21.05
2019-05-10T14:14:28.633Z,19.85
2019-05-10T14:16:56.555Z,21.77
2019-05-10T14:19:25.486Z,17.48
2019-05-10T14:21:54.062Z,18.02
2019-05-10T14:24:22.014Z,18.25
2019-05-10T14:26:51.602Z,18.40
2019-05-10T14:29:19.486Z,17.23
2019-05-10T14:31:47.402Z,17.30
2019-05-10T14:34:15.830Z,20.52
2019-05-10T14:36:43.861Z,18.73
2019-05-10T14:39:11.735Z,19.17
2019-05-10T14:41:40.156Z,17.90
2019-05-10T14:44:08.169Z,19.67
2019-05-10T14:46:36.004Z,22.65
2019-05-10T14:49:10.016Z,19.05
2019-05-10T14:51:44.345Z,18.20
2019-05-10T14:54:06.722Z,18.35
2019-05-10T14:56:32.658Z,18.80
2019-05-10T14:59:00.498Z,19.00
2019-05-10T15:01:28.433Z,16.95
2019-05-10T15:03:56.305Z,19.73
2019-05-10T15:06:24.158Z,18.15
2019-05-10T15:08:52.027Z,19.17
2019-05-10T15:11:19.853Z,16.67
2019-05-10T15:13:47.743Z,18.67
2019-05-10T15:16:26.343Z,17.82
2019-05-10T15:18:45.147Z,18.35
2019-05-10T15:21:12.970Z,21.87
2019-05-10T15:23:40.823Z,17.82
2019-05-10T15:26:11.722Z,18.23
2019-05-10T15:28:40.502Z,18.02
2019-05-10T15:31:07.910Z,17.70
2019-05-10T15:33:35.751Z,19.87
2019-05-10T15:36:03.586Z,17.05
2019-05-10T15:38:31.405Z,19.02
2019-05-10T15:40:59.254Z,20.25
2019-05-10T15:43:27.110Z,21.23
2019-05-10T15:45:55.178Z,19.80
2019-05-10T15:48:23.016Z,18.75
2019-05-10T15:50:50.875Z,17.75
2019-05-10T15:53:25.441Z,17.40
2019-05-10T15:55:48.683Z,18.82
2019-05-10T15:58:16.615Z,18.70
2019-05-10T16:00:44.472Z,17.67
2019-05-10T16:03:12.275Z,21.57
2019-05-10T16:05:44.177Z,19.57
2019-05-10T16:08:09.715Z,17.85
2019-05-10T16:10:39.367Z,19.25
2019-05-10T16:13:07.122Z,21.55
2019-05-10T16:15:34.975Z,18.73
2019-05-10T16:18:02.904Z,20.55
2019-05-10T16:20:31.773Z,19.25
2019-05-10T16:23:02.883Z,18.50
2019-05-10T16:25:41.957Z,20.05
2019-05-10T16:28:02.429Z,22.17
2019-05-10T16:30:30.256Z,18.75
2019-05-10T16:32:58.096Z,21.12
2019-05-10T16:35:38.101Z,20.25
2019-05-10T16:37:55.586Z,19.55
2019-05-10T16:40:23.751Z,20.80
2019-05-10T16:42:51.606Z,20.10
2019-05-10T16:45:19.445Z,20.60
2019-05-10T16:47:47.284Z,21.90
2019-05-10T16:50:15.251Z,19.15
2019-05-10T16:52:43.086Z,28.57
2019-05-10T16:55:11.810Z,22.82
2019-05-10T16:57:41.863Z,21.00
2019-05-10T17:00:10.859Z,21.02
2019-05-10T17:02:42.159Z,21.05
2019-05-10T17:05:09.546Z,21.23
2019-05-10T17:07:39.398Z,22.02
2019-05-10T17:10:07.524Z,24.55
2019-05-10T17:12:37.259Z,21.62
2019-05-10T17:15:05.523Z,21.30
2019-05-10T17:17:37.020Z,21.62
2019-05-10T17:20:07.551Z,22.10
2019-05-10T17:22:32.674Z,22.22
2019-05-10T17:25:03.182Z,19.65
2019-05-10T17:27:30.270Z,17.25
2019-05-10T17:29:58.132Z,16.67
2019-05-10T17:32:26.932Z,18.15
2019-05-10T17:34:59.093Z,19.32
2019-05-10T17:37:24.381Z,22.80
2019-05-10T17:39:54.610Z,23.02
2019-05-10T17:42:22.580Z,22.20
2019-05-10T17:44:55.134Z,23.12
2019-05-10T17:47:21.433Z,22.37
2019-05-10T17:49:49.349Z,21.97
2019-05-10T17:52:17.274Z,21.80
2019-05-10T17:54:47.500Z,22.48
2019-05-10T17:57:16.619Z,22.22
2019-05-10T17:59:52.283Z,23.87
2019-05-10T18:02:18.330Z,22.50
2019-05-10T18:04:46.370Z,21.55
2019-05-10T18:07:14.464Z,21.55
2019-05-10T18:09:42.484Z,21.90
2019-05-10T18:12:10.595Z,22.82
2019-05-10T18:14:38.576Z,20.37
2019-05-10T18:17:08.251Z,23.27
2019-05-10T18:19:36.217Z,22.90
2019-05-10T18:22:06.407Z,24.47
2019-05-10T18:24:41.389Z,24.25
2019-05-10T18:27:05.783Z,20.88
2019-05-10T18:29:33.762Z,22.35
2019-05-10T18:32:01.887Z,21.65
2019-05-10T18:34:33.384Z,20.90
2019-05-10T18:36:59.560Z,20.62
2019-05-10T18:39:27.531Z,21.10
2019-05-10T18:41:55.583Z,21.80
2019-05-10T18:44:23.503Z,20.40
2019-05-10T18:46:51.511Z,20.85
2019-05-10T18:49:19.512Z,21.25
2019-05-10T18:51:47.907Z,21.55
2019-05-10T18:54:15.919Z,24.67
2019-05-10T18:56:46.096Z,24.10
2019-05-10T18:59:14.326Z,23.27
2019-05-10T19:01:45.547Z,25.45
2019-05-10T19:04:14.430Z,42.80
2019-05-10T19:06:44.122Z,44.77
2019-05-10T19:09:13.051Z,45.52
2019-05-10T19:11:41.345Z,41.42
2019-05-10T19:14:09.458Z,42.53
2019-05-10T19:16:37.993Z,39.50
2019-05-10T19:19:06.949Z,36.05
2019-05-10T19:21:37.741Z,32.45
2019-05-10T19:24:06.032Z,30.00
2019-05-10T19:26:36.280Z,27.30
2019-05-10T19:29:06.775Z,29.25
2019-05-10T19:31:37.901Z,28.07
2019-05-10T19:34:09.092Z,26.52
2019-05-10T19:36:33.659Z,27.42
2019-05-10T19:39:01.792Z,27.77
2019-05-10T19:41:30.300Z,27.40
2019-05-10T19:44:02.450Z,28.25
2019-05-10T19:46:30.245Z,28.42
2019-05-10T19:48:59.391Z,27.25
2019-05-10T19:51:28.583Z,29.67
2019-05-10T19:53:57.992Z,31.27
2019-05-10T19:56:30.032Z,34.90
2019-05-10T19:58:58.029Z,30.55
2019-05-10T20:01:26.524Z,30.80
2019-05-10T20:04:00.259Z,29.75
2019-05-10T20:06:28.292Z,32.63
2019-05-10T20:08:56.270Z,33.20
2019-05-10T20:11:24.312Z,30.80
2019-05-10T20:13:52.759Z,30.40
2019-05-10T20:16:20.718Z,31.02
2019-05-10T20:18:48.766Z,30.23
2019-05-10T20:21:16.736Z,31.50
2019-05-10T20:23:47.851Z,29.87
2019-05-10T20:26:15.821Z,29.65
2019-05-10T20:28:43.737Z,31.00
2019-05-10T20:31:13.239Z,36.35
2019-05-10T20:33:43.011Z,35.38
2019-05-10T20:36:11.028Z,32.70
2019-05-10T20:38:49.159Z,34.03
2019-05-10T20:41:17.433Z,32.42
2019-05-10T20:43:45.671Z,33.00
2019-05-10T20:46:13.706Z,32.25
2019-05-10T20:48:43.094Z,30.95
2019-05-10T20:51:11.136Z,31.82
2019-05-10T20:53:39.977Z,30.72
2019-05-10T20:56:11.473Z,31.12
2019-05-10T20:58:40.172Z,31.33
2019-05-10T21:01:08.220Z,31.42
2019-05-10T21:03:41.326Z,32.15
2019-05-10T21:06:09.368Z,31.02
2019-05-10T21:08:40.081Z,29.92
2019-05-10T21:11:11.916Z,30.00
2019-05-10T21:13:40.953Z,30.27
2019-05-10T21:16:08.913Z,32.03
2019-05-10T21:18:38.075Z,35.83
2019-05-10T21:21:06.099Z,31.95
2019-05-10T21:23:35.522Z,33.02
2019-05-10T21:26:03.471Z,34.00
2019-05-10T21:28:31.428Z,34.55
2019-05-10T21:30:59.372Z,32.75
2019-05-10T21:33:28.420Z,32.98
2019-05-10T21:35:56.401Z,33.33
2019-05-10T21:38:33.115Z,33.85
2019-05-10T21:40:58.402Z,33.20
2019-05-10T21:43:27.027Z,31.70
2019-05-10T21:45:56.138Z,31.93
2019-05-10T21:48:24.088Z,34.38
2019-05-10T21:50:52.002Z,33.65
2019-05-10T21:53:20.098Z,33.83
2019-05-10T21:55:48.119Z,33.95
2019-05-10T21:58:18.845Z,34.15
2019-05-10T22:00:48.528Z,31.45
2019-05-10T22:03:16.494Z,33.15
2019-05-10T22:05:44.537Z,35.30
2019-05-10T22:08:13.530Z,35.52
2019-05-10T22:10:43.801Z,37.08
2019-05-10T22:13:11.789Z,40.10
2019-05-10T22:15:40.228Z,38.95
2019-05-10T22:18:08.280Z,34.85
2019-05-10T22:20:36.234Z,35.30
2019-05-10T22:23:04.202Z,36.40
2019-05-10T22:25:33.335Z,35.60
2019-05-10T22:28:01.268Z,37.23
2019-05-10T22:30:29.250Z,39.73
2019-05-10T22:32:57.154Z,40.58
2019-05-10T22:35:25.156Z,44.55
2019-05-10T22:37:53.134Z,42.35
2019-05-10T22:40:21.458Z,42.15
2019-05-10T22:42:49.397Z,38.30
2019-05-10T22:45:17.619Z,40.85
2019-05-10T22:47:46.642Z,41.05
2019-05-10T22:50:14.693Z,41.28
2019-05-10T22:52:43.514Z,41.77
2019-05-10T22:55:11.590Z,41.40
2019-05-10T22:57:39.564Z,42.25
2019-05-10T23:00:09.252Z,40.03
2019-05-10T23:02:37.233Z,43.05
2019-05-10T23:05:06.636Z,40.40
2019-05-10T23:07:34.567Z,39.15
2019-05-10T23:10:04.021Z,46.73
2019-05-10T23:12:34.039Z,42.90
2019-05-10T23:15:01.967Z,44.80
2019-05-10T23:17:31.129Z,42.65
2019-05-10T23:20:01.007Z,42.05
2019-05-10T23:22:29.014Z,39.88
2019-05-10T23:24:56.893Z,42.00
2019-05-10T23:27:24.910Z,46.45
2019-05-10T23:29:54.956Z,43.70
2019-05-10T23:32:24.094Z,40.90
2019-05-10T23:34:52.995Z,41.98
2019-05-10T23:37:20.927Z,41.30
2019-05-10T23:39:48.890Z,43.20
2019-05-10T23:42:16.897Z,41.77
2019-05-10T23:44:46.099Z,43.78
2019-05-10T23:47:15.226Z,42.95
2019-05-10T23:49:43.474Z,44.18
2019-05-10T23:52:13.486Z,47.23
2019-05-10T23:54:42.627Z,47.10
2019-05-10T23:57:10.557Z,45.70
2019-05-10T23:59:38.872Z,47.80
